sensor_id;sensor_type;location;lat;lon;timestamp;P1;durP1;ratioP1;P2;durP2;ratioP2
11488;SDS011;5801;50.804;12.638;2024-03-02T00:02:12;27.30;;;15.38;;
11488;SDS011;5801;50.804;12.638;2024-03-02T00:04:39;28.70;;;16.02;;
11488;SDS011;5801;50.804;12.638;2024-03-02T00:07:05;33.42;;;15.85;;
11488;SDS011;5801;50.804;12.638;2024-03-02T00:09:31;30.13;;;15.75;;
11488;SDS011;5801;50.804;12.638;2024-03-02T00:11:59;34.83;;;16.30;;
11488;SDS011;5801;50.804;12.638;2024-03-02T00:14:25;31.98;;;15.98;;
11488;SDS011;5801;50.804;12.638;2024-03-02T00:16:54;36.90;;;16.55;;
11488;SDS011;5801;50.804;12.638;2024-03-02T00:19:21;34.53;;;16.88;;
11488;SDS011;5801;50.804;12.638;2024-03-02T00:21:47;40.80;;;16.23;;
11488;SDS011;5801;50.804;12.638;2024-03-02T00:26:57;33.10;;;15.98;;
11488;SDS011;5801;50.804;12.638;2024-03-02T00:29:24;32.60;;;14.73;;
11488;SDS011;5801;50.804;12.638;2024-03-02T00:31:50;37.22;;;17.38;;
11488;SDS011;5801;50.804;12.638;2024-03-02T00:34:16;35.00;;;16.58;;
11488;SDS011;5801;50.804;12.638;2024-03-02T00:36:42;36.35;;;16.88;;
11488;SDS011;5801;50.804;12.638;2024-03-02T00:39:09;31.08;;;16.60;;
11488;SDS011;5801;50.804;12.638;2024-03-02T00:41:38;33.28;;;16.30;;
11488;SDS011;5801;50.804;12.638;2024-03-02T00:44:07;38.45;;;19.02;;
11488;SDS011;5801;50.804;12.638;2024-03-02T00:46:37;33.38;;;17.50;;
11488;SDS011;5801;50.804;12.638;2024-03-02T00:49:11;42.88;;;18.60;;
11488;SDS011;5801;50.804;12.638;2024-03-02T00:51:49;44.63;;;18.42;;
11488;SDS011;5801;50.804;12.638;2024-03-02T00:54:25;39.40;;;19.10;;
11488;SDS011;5801;50.804;12.638;2024-03-02T00:56:52;36.60;;;18.98;;
11488;SDS011;5801;50.804;12.638;2024-03-02T00:59:20;39.25;;;18.02;;
11488;SDS011;5801;50.804;12.638;2024-03-02T01:01:47;41.42;;;20.60;;
11488;SDS011;5801;50.804;12.638;2024-03-02T01:04:14;44.08;;;20.13;;
11488;SDS011;5801;50.804;12.638;2024-03-02T01:06:41;43.80;;;18.70;;
11488;SDS011;5801;50.804;12.638;2024-03-02T01:09:10;44.97;;;20.55;;
11488;SDS011;5801;50.804;12.638;2024-03-02T01:11:37;39.90;;;19.67;;
11488;SDS011;5801;50.804;12.638;2024-03-02T01:14:03;39.13;;;17.33;;
11488;SDS011;5801;50.804;12.638;2024-03-02T01:16:29;41.90;;;19.65;;
11488;SDS011;5801;50.804;12.638;2024-03-02T01:18:55;34.85;;;18.27;;
11488;SDS011;5801;50.804;12.638;2024-03-02T01:21:21;36.50;;;17.60;;
11488;SDS011;5801;50.804;12.638;2024-03-02T01:23:47;35.00;;;17.33;;
11488;SDS011;5801;50.804;12.638;2024-03-02T01:26:13;41.33;;;18.70;;
11488;SDS011;5801;50.804;12.638;2024-03-02T01:28:42;37.30;;;17.10;;
11488;SDS011;5801;50.804;12.638;2024-03-02T01:31:08;32.97;;;16.02;;
11488;SDS011;5801;50.804;12.638;2024-03-02T01:33:34;35.63;;;17.58;;
11488;SDS011;5801;50.804;12.638;2024-03-02T01:36:00;32.92;;;16.38;;
11488;SDS011;5801;50.804;12.638;2024-03-02T01:38:26;37.92;;;17.60;;
11488;SDS011;5801;50.804;12.638;2024-03-02T01:40:53;34.42;;;18.73;;
11488;SDS011;5801;50.804;12.638;2024-03-02T01:43:21;37.15;;;17.13;;
11488;SDS011;5801;50.804;12.638;2024-03-02T01:45:47;36.72;;;16.65;;
11488;SDS011;5801;50.804;12.638;2024-03-02T01:48:13;29.70;;;15.52;;
11488;SDS011;5801;50.804;12.638;2024-03-02T01:50:39;39.55;;;17.08;;
11488;SDS011;5801;50.804;12.638;2024-03-02T01:53:05;36.35;;;17.30;;
11488;SDS011;5801;50.804;12.638;2024-03-02T01:55:33;31.30;;;15.80;;
11488;SDS011;5801;50.804;12.638;2024-03-02T01:57:59;36.03;;;17.30;;
11488;SDS011;5801;50.804;12.638;2024-03-02T02:00:26;37.67;;;16.88;;
11488;SDS011;5801;50.804;12.638;2024-03-02T02:02:51;34.60;;;16.10;;
11488;SDS011;5801;50.804;12.638;2024-03-02T02:05:18;34.75;;;16.40;;
11488;SDS011;5801;50.804;12.638;2024-03-02T02:07:44;31.50;;;15.80;;
11488;SDS011;5801;50.804;12.638;2024-03-02T02:10:10;33.78;;;16.20;;
11488;SDS011;5801;50.804;12.638;2024-03-02T02:12:36;36.72;;;16.95;;
11488;SDS011;5801;50.804;12.638;2024-03-02T02:15:02;32.38;;;15.07;;
11488;SDS011;5801;50.804;12.638;2024-03-02T02:17:30;32.08;;;16.35;;
11488;SDS011;5801;50.804;12.638;2024-03-02T02:19:55;40.08;;;15.80;;
11488;SDS011;5801;50.804;12.638;2024-03-02T02:22:21;34.83;;;16.00;;
11488;SDS011;5801;50.804;12.638;2024-03-02T02:24:48;32.10;;;15.57;;
11488;SDS011;5801;50.804;12.638;2024-03-02T02:27:14;36.13;;;15.43;;
11488;SDS011;5801;50.804;12.638;2024-03-02T02:29:40;30.88;;;15.68;;
11488;SDS011;5801;50.804;12.638;2024-03-02T02:32:06;28.67;;;15.10;;
11488;SDS011;5801;50.804;12.638;2024-03-02T02:34:32;31.92;;;15.43;;
11488;SDS011;5801;50.804;12.638;2024-03-02T02:36:58;27.02;;;14.55;;
11488;SDS011;5801;50.804;12.638;2024-03-02T02:39:24;31.73;;;15.20;;
11488;SDS011;5801;50.804;12.638;2024-03-02T02:41:51;39.50;;;15.13;;
11488;SDS011;5801;50.804;12.638;2024-03-02T02:44:17;32.83;;;15.02;;
11488;SDS011;5801;50.804;12.638;2024-03-02T02:46:43;31.58;;;15.68;;
11488;SDS011;5801;50.804;12.638;2024-03-02T02:49:09;30.42;;;15.45;;
11488;SDS011;5801;50.804;12.638;2024-03-02T02:51:35;30.13;;;14.90;;
11488;SDS011;5801;50.804;12.638;2024-03-02T02:54:01;29.23;;;14.70;;
11488;SDS011;5801;50.804;12.638;2024-03-02T02:56:27;30.40;;;14.02;;
11488;SDS011;5801;50.804;12.638;2024-03-02T02:58:53;28.70;;;14.98;;
11488;SDS011;5801;50.804;12.638;2024-03-02T03:01:19;28.55;;;14.18;;
11488;SDS011;5801;50.804;12.638;2024-03-02T03:03:45;32.92;;;14.55;;
11488;SDS011;5801;50.804;12.638;2024-03-02T03:06:11;24.90;;;13.57;;
11488;SDS011;5801;50.804;12.638;2024-03-02T03:08:38;30.15;;;14.32;;
11488;SDS011;5801;50.804;12.638;2024-03-02T03:11:04;29.50;;;14.15;;
11488;SDS011;5801;50.804;12.638;2024-03-02T03:13:31;26.58;;;13.55;;
11488;SDS011;5801;50.804;12.638;2024-03-02T03:15:57;28.52;;;13.32;;
11488;SDS011;5801;50.804;12.638;2024-03-02T03:18:23;35.28;;;14.55;;
11488;SDS011;5801;50.804;12.638;2024-03-02T03:20:48;30.50;;;14.73;;
11488;SDS011;5801;50.804;12.638;2024-03-02T03:23:15;26.48;;;14.00;;
11488;SDS011;5801;50.804;12.638;2024-03-02T03:25:42;26.45;;;14.27;;
11488;SDS011;5801;50.804;12.638;2024-03-02T03:28:08;27.65;;;14.18;;
11488;SDS011;5801;50.804;12.638;2024-03-02T03:30:37;28.20;;;15.40;;
11488;SDS011;5801;50.804;12.638;2024-03-02T03:33:04;32.28;;;14.55;;
11488;SDS011;5801;50.804;12.638;2024-03-02T03:35:33;27.20;;;13.40;;
11488;SDS011;5801;50.804;12.638;2024-03-02T03:37:59;32.83;;;14.95;;
11488;SDS011;5801;50.804;12.638;2024-03-02T03:40:25;25.20;;;12.43;;
11488;SDS011;5801;50.804;12.638;2024-03-02T03:42:51;27.45;;;13.57;;
11488;SDS011;5801;50.804;12.638;2024-03-02T03:45:18;25.65;;;14.27;;
11488;SDS011;5801;50.804;12.638;2024-03-02T03:47:43;29.15;;;13.65;;
11488;SDS011;5801;50.804;12.638;2024-03-02T03:50:09;29.15;;;14.77;;
11488;SDS011;5801;50.804;12.638;2024-03-02T03:52:36;24.13;;;13.52;;
11488;SDS011;5801;50.804;12.638;2024-03-02T03:55:02;24.88;;;13.25;;
11488;SDS011;5801;50.804;12.638;2024-03-02T03:57:28;25.77;;;13.15;;
11488;SDS011;5801;50.804;12.638;2024-03-02T03:59:54;29.77;;;13.73;;
11488;SDS011;5801;50.804;12.638;2024-03-02T04:02:20;28.90;;;14.75;;
11488;SDS011;5801;50.804;12.638;2024-03-02T04:04:46;30.02;;;14.48;;
11488;SDS011;5801;50.804;12.638;2024-03-02T04:07:12;27.05;;;13.30;;
11488;SDS011;5801;50.804;12.638;2024-03-02T04:09:37;24.02;;;13.93;;
11488;SDS011;5801;50.804;12.638;2024-03-02T04:12:03;24.85;;;14.18;;
11488;SDS011;5801;50.804;12.638;2024-03-02T04:14:29;25.60;;;13.77;;
11488;SDS011;5801;50.804;12.638;2024-03-02T04:16:55;27.02;;;13.32;;
11488;SDS011;5801;50.804;12.638;2024-03-02T04:19:21;24.63;;;12.27;;
11488;SDS011;5801;50.804;12.638;2024-03-02T04:21:47;27.38;;;13.32;;
11488;SDS011;5801;50.804;12.638;2024-03-02T04:24:13;23.92;;;14.27;;
11488;SDS011;5801;50.804;12.638;2024-03-02T04:26:39;25.38;;;13.10;;
11488;SDS011;5801;50.804;12.638;2024-03-02T04:29:05;28.15;;;13.45;;
11488;SDS011;5801;50.804;12.638;2024-03-02T04:31:31;29.50;;;14.57;;
11488;SDS011;5801;50.804;12.638;2024-03-02T04:33:57;27.42;;;12.98;;
11488;SDS011;5801;50.804;12.638;2024-03-02T04:36:23;27.20;;;13.02;;
11488;SDS011;5801;50.804;12.638;2024-03-02T04:38:49;26.60;;;13.57;;
11488;SDS011;5801;50.804;12.638;2024-03-02T04:41:16;31.85;;;14.05;;
11488;SDS011;5801;50.804;12.638;2024-03-02T04:43:42;33.22;;;16.63;;
11488;SDS011;5801;50.804;12.638;2024-03-02T04:46:07;48.75;;;20.85;;
11488;SDS011;5801;50.804;12.638;2024-03-02T04:48:33;49.92;;;21.90;;
11488;SDS011;5801;50.804;12.638;2024-03-02T04:50:59;42.38;;;21.60;;
11488;SDS011;5801;50.804;12.638;2024-03-02T04:53:25;36.10;;;18.35;;
11488;SDS011;5801;50.804;12.638;2024-03-02T04:55:51;31.50;;;15.60;;
11488;SDS011;5801;50.804;12.638;2024-03-02T04:58:35;31.58;;;15.48;;
11488;SDS011;5801;50.804;12.638;2024-03-02T05:01:01;35.13;;;15.45;;
11488;SDS011;5801;50.804;12.638;2024-03-02T05:03:27;32.03;;;16.13;;
11488;SDS011;5801;50.804;12.638;2024-03-02T05:05:53;30.77;;;15.70;;
11488;SDS011;5801;50.804;12.638;2024-03-02T05:08:19;26.48;;;13.68;;
11488;SDS011;5801;50.804;12.638;2024-03-02T05:10:45;34.50;;;12.98;;
11488;SDS011;5801;50.804;12.638;2024-03-02T05:13:11;27.92;;;13.60;;
11488;SDS011;5801;50.804;12.638;2024-03-02T05:15:37;28.27;;;14.27;;
11488;SDS011;5801;50.804;12.638;2024-03-02T05:18:04;24.77;;;13.07;;
11488;SDS011;5801;50.804;12.638;2024-03-02T05:20:30;27.38;;;14.50;;
11488;SDS011;5801;50.804;12.638;2024-03-02T05:22:56;23.80;;;14.52;;
11488;SDS011;5801;50.804;12.638;2024-03-02T05:25:22;28.00;;;13.93;;
11488;SDS011;5801;50.804;12.638;2024-03-02T05:27:48;23.15;;;13.02;;
11488;SDS011;5801;50.804;12.638;2024-03-02T05:30:14;27.05;;;13.60;;
11488;SDS011;5801;50.804;12.638;2024-03-02T05:32:41;23.90;;;12.90;;
11488;SDS011;5801;50.804;12.638;2024-03-02T05:35:07;23.10;;;12.45;;
11488;SDS011;5801;50.804;12.638;2024-03-02T05:37:33;27.58;;;13.35;;
11488;SDS011;5801;50.804;12.638;2024-03-02T05:39:59;21.38;;;12.32;;
11488;SDS011;5801;50.804;12.638;2024-03-02T05:42:25;31.33;;;13.63;;
11488;SDS011;5801;50.804;12.638;2024-03-02T05:44:51;31.70;;;12.80;;
11488;SDS011;5801;50.804;12.638;2024-03-02T05:47:18;32.33;;;15.40;;
11488;SDS011;5801;50.804;12.638;2024-03-02T05:49:44;31.00;;;14.60;;
11488;SDS011;5801;50.804;12.638;2024-03-02T05:52:09;32.35;;;15.00;;
11488;SDS011;5801;50.804;12.638;2024-03-02T05:54:36;31.98;;;14.23;;
11488;SDS011;5801;50.804;12.638;2024-03-02T05:57:03;33.40;;;13.95;;
11488;SDS011;5801;50.804;12.638;2024-03-02T05:59:48;32.60;;;13.88;;
11488;SDS011;5801;50.804;12.638;2024-03-02T06:02:14;26.73;;;13.43;;
11488;SDS011;5801;50.804;12.638;2024-03-02T06:04:39;36.95;;;13.43;;
11488;SDS011;5801;50.804;12.638;2024-03-02T06:07:05;28.08;;;13.40;;
11488;SDS011;5801;50.804;12.638;2024-03-02T06:09:32;24.00;;;13.02;;
11488;SDS011;5801;50.804;12.638;2024-03-02T06:11:58;25.95;;;13.00;;
11488;SDS011;5801;50.804;12.638;2024-03-02T06:14:24;24.63;;;12.40;;
11488;SDS011;5801;50.804;12.638;2024-03-02T06:16:50;26.30;;;13.30;;
11488;SDS011;5801;50.804;12.638;2024-03-02T06:19:16;27.45;;;13.88;;
11488;SDS011;5801;50.804;12.638;2024-03-02T06:21:42;23.58;;;13.73;;
11488;SDS011;5801;50.804;12.638;2024-03-02T06:24:09;26.27;;;12.90;;
11488;SDS011;5801;50.804;12.638;2024-03-02T06:26:35;25.27;;;13.70;;
11488;SDS011;5801;50.804;12.638;2024-03-02T06:29:01;26.05;;;12.48;;
11488;SDS011;5801;50.804;12.638;2024-03-02T06:31:27;23.73;;;12.90;;
11488;SDS011;5801;50.804;12.638;2024-03-02T06:33:53;23.23;;;12.95;;
11488;SDS011;5801;50.804;12.638;2024-03-02T06:36:19;29.73;;;12.32;;
11488;SDS011;5801;50.804;12.638;2024-03-02T06:38:45;28.10;;;13.70;;
11488;SDS011;5801;50.804;12.638;2024-03-02T06:41:11;24.98;;;13.68;;
11488;SDS011;5801;50.804;12.638;2024-03-02T06:43:37;22.70;;;13.43;;
11488;SDS011;5801;50.804;12.638;2024-03-02T06:46:03;23.92;;;12.20;;
11488;SDS011;5801;50.804;12.638;2024-03-02T06:48:31;22.85;;;12.18;;
11488;SDS011;5801;50.804;12.638;2024-03-02T06:50:56;31.38;;;12.93;;
11488;SDS011;5801;50.804;12.638;2024-03-02T06:53:23;25.05;;;11.77;;
11488;SDS011;5801;50.804;12.638;2024-03-02T06:55:48;26.58;;;12.52;;
11488;SDS011;5801;50.804;12.638;2024-03-02T06:58:14;22.40;;;11.63;;
11488;SDS011;5801;50.804;12.638;2024-03-02T07:00:41;26.48;;;12.80;;
11488;SDS011;5801;50.804;12.638;2024-03-02T07:03:07;32.60;;;13.30;;
11488;SDS011;5801;50.804;12.638;2024-03-02T07:05:33;24.23;;;11.90;;
11488;SDS011;5801;50.804;12.638;2024-03-02T07:07:59;28.38;;;13.63;;
11488;SDS011;5801;50.804;12.638;2024-03-02T07:10:26;24.33;;;12.52;;
11488;SDS011;5801;50.804;12.638;2024-03-02T07:12:52;26.02;;;11.63;;
11488;SDS011;5801;50.804;12.638;2024-03-02T07:15:18;27.00;;;11.85;;
11488;SDS011;5801;50.804;12.638;2024-03-02T07:17:53;24.45;;;12.82;;
11488;SDS011;5801;50.804;12.638;2024-03-02T07:20:19;27.27;;;12.45;;
11488;SDS011;5801;50.804;12.638;2024-03-02T07:22:45;25.58;;;12.13;;
11488;SDS011;5801;50.804;12.638;2024-03-02T07:25:11;27.48;;;11.98;;
11488;SDS011;5801;50.804;12.638;2024-03-02T07:27:37;26.42;;;11.88;;
11488;SDS011;5801;50.804;12.638;2024-03-02T07:30:04;22.10;;;11.52;;
11488;SDS011;5801;50.804;12.638;2024-03-02T07:32:31;29.25;;;12.35;;
11488;SDS011;5801;50.804;12.638;2024-03-02T07:34:57;19.92;;;11.32;;
11488;SDS011;5801;50.804;12.638;2024-03-02T07:37:23;21.60;;;12.18;;
11488;SDS011;5801;50.804;12.638;2024-03-02T07:39:50;22.63;;;11.45;;
11488;SDS011;5801;50.804;12.638;2024-03-02T07:42:16;26.77;;;12.55;;
11488;SDS011;5801;50.804;12.638;2024-03-02T07:44:43;25.45;;;12.25;;
11488;SDS011;5801;50.804;12.638;2024-03-02T07:47:10;22.17;;;11.98;;
11488;SDS011;5801;50.804;12.638;2024-03-02T07:49:36;18.58;;;10.13;;
11488;SDS011;5801;50.804;12.638;2024-03-02T07:52:02;19.52;;;10.02;;
11488;SDS011;5801;50.804;12.638;2024-03-02T07:54:28;21.13;;;9.93;;
11488;SDS011;5801;50.804;12.638;2024-03-02T07:56:54;18.45;;;11.13;;
11488;SDS011;5801;50.804;12.638;2024-03-02T07:59:20;18.33;;;10.15;;
11488;SDS011;5801;50.804;12.638;2024-03-02T08:01:47;22.13;;;11.05;;
11488;SDS011;5801;50.804;12.638;2024-03-02T08:04:15;19.42;;;10.73;;
11488;SDS011;5801;50.804;12.638;2024-03-02T08:06:41;16.88;;;9.90;;
11488;SDS011;5801;50.804;12.638;2024-03-02T08:09:07;23.55;;;10.55;;
11488;SDS011;5801;50.804;12.638;2024-03-02T08:11:36;16.95;;;9.35;;
11488;SDS011;5801;50.804;12.638;2024-03-02T08:14:02;22.98;;;10.23;;
11488;SDS011;5801;50.804;12.638;2024-03-02T08:16:28;18.33;;;9.63;;
11488;SDS011;5801;50.804;12.638;2024-03-02T08:18:54;23.83;;;10.70;;
11488;SDS011;5801;50.804;12.638;2024-03-02T08:21:22;16.05;;;9.07;;
11488;SDS011;5801;50.804;12.638;2024-03-02T08:23:48;20.58;;;9.77;;
11488;SDS011;5801;50.804;12.638;2024-03-02T08:26:15;15.00;;;8.32;;
11488;SDS011;5801;50.804;12.638;2024-03-02T08:28:41;18.80;;;9.43;;
11488;SDS011;5801;50.804;12.638;2024-03-02T08:31:07;17.15;;;9.63;;
11488;SDS011;5801;50.804;12.638;2024-03-02T08:33:33;21.98;;;9.98;;
11488;SDS011;5801;50.804;12.638;2024-03-02T08:35:59;18.90;;;9.75;;
11488;SDS011;5801;50.804;12.638;2024-03-02T08:38:25;16.35;;;8.70;;
11488;SDS011;5801;50.804;12.638;2024-03-02T08:40:51;15.57;;;7.82;;
11488;SDS011;5801;50.804;12.638;2024-03-02T08:43:17;19.13;;;9.07;;
11488;SDS011;5801;50.804;12.638;2024-03-02T08:45:43;20.05;;;8.95;;
11488;SDS011;5801;50.804;12.638;2024-03-02T08:48:08;23.77;;;9.07;;
11488;SDS011;5801;50.804;12.638;2024-03-02T08:50:35;13.88;;;8.43;;
11488;SDS011;5801;50.804;12.638;2024-03-02T08:53:02;15.95;;;8.20;;
11488;SDS011;5801;50.804;12.638;2024-03-02T08:55:28;22.65;;;10.32;;
11488;SDS011;5801;50.804;12.638;2024-03-02T08:57:54;15.15;;;8.57;;
11488;SDS011;5801;50.804;12.638;2024-03-02T09:00:20;15.27;;;8.95;;
11488;SDS011;5801;50.804;12.638;2024-03-02T09:02:47;18.77;;;9.05;;
11488;SDS011;5801;50.804;12.638;2024-03-02T09:05:13;19.25;;;9.52;;
11488;SDS011;5801;50.804;12.638;2024-03-02T09:07:39;17.55;;;9.00;;
11488;SDS011;5801;50.804;12.638;2024-03-02T09:10:05;19.38;;;9.02;;
11488;SDS011;5801;50.804;12.638;2024-03-02T09:12:32;18.70;;;9.60;;
11488;SDS011;5801;50.804;12.638;2024-03-02T09:14:59;21.30;;;9.48;;
11488;SDS011;5801;50.804;12.638;2024-03-02T09:17:26;15.55;;;8.73;;
11488;SDS011;5801;50.804;12.638;2024-03-02T09:19:52;20.33;;;9.30;;
11488;SDS011;5801;50.804;12.638;2024-03-02T09:22:18;21.58;;;9.52;;
11488;SDS011;5801;50.804;12.638;2024-03-02T09:24:44;17.23;;;9.70;;
11488;SDS011;5801;50.804;12.638;2024-03-02T09:27:10;15.38;;;8.90;;
11488;SDS011;5801;50.804;12.638;2024-03-02T09:29:36;15.13;;;8.05;;
11488;SDS011;5801;50.804;12.638;2024-03-02T09:32:02;21.00;;;9.57;;
11488;SDS011;5801;50.804;12.638;2024-03-02T09:34:30;23.15;;;9.82;;
11488;SDS011;5801;50.804;12.638;2024-03-02T09:36:57;19.02;;;9.23;;
11488;SDS011;5801;50.804;12.638;2024-03-02T09:39:23;20.27;;;9.85;;
11488;SDS011;5801;50.804;12.638;2024-03-02T09:41:50;14.95;;;8.32;;
11488;SDS011;5801;50.804;12.638;2024-03-02T09:44:16;16.05;;;8.80;;
11488;SDS011;5801;50.804;12.638;2024-03-02T09:46:42;15.88;;;8.95;;
11488;SDS011;5801;50.804;12.638;2024-03-02T09:49:09;17.73;;;8.48;;
11488;SDS011;5801;50.804;12.638;2024-03-02T09:51:36;15.80;;;8.35;;
11488;SDS011;5801;50.804;12.638;2024-03-02T09:54:02;16.95;;;9.00;;
11488;SDS011;5801;50.804;12.638;2024-03-02T09:56:28;14.00;;;7.22;;
11488;SDS011;5801;50.804;12.638;2024-03-02T09:58:54;17.95;;;7.47;;
11488;SDS011;5801;50.804;12.638;2024-03-02T10:01:20;15.93;;;7.63;;
11488;SDS011;5801;50.804;12.638;2024-03-02T10:03:47;14.40;;;6.68;;
11488;SDS011;5801;50.804;12.638;2024-03-02T10:06:19;13.30;;;6.35;;
11488;SDS011;5801;50.804;12.638;2024-03-02T10:08:46;12.82;;;6.35;;
11488;SDS011;5801;50.804;12.638;2024-03-02T10:11:32;11.13;;;6.38;;
11488;SDS011;5801;50.804;12.638;2024-03-02T10:14:05;9.93;;;5.35;;
11488;SDS011;5801;50.804;12.638;2024-03-02T10:16:40;9.88;;;5.65;;
11488;SDS011;5801;50.804;12.638;2024-03-02T10:19:17;9.77;;;6.05;;
11488;SDS011;5801;50.804;12.638;2024-03-02T10:21:47;11.60;;;5.65;;
11488;SDS011;5801;50.804;12.638;2024-03-02T10:24:17;9.55;;;5.47;;
11488;SDS011;5801;50.804;12.638;2024-03-02T10:26:47;8.52;;;5.32;;
11488;SDS011;5801;50.804;12.638;2024-03-02T10:29:14;14.20;;;6.18;;
11488;SDS011;5801;50.804;12.638;2024-03-02T10:31:40;9.90;;;5.95;;
11488;SDS011;5801;50.804;12.638;2024-03-02T10:34:13;9.25;;;5.45;;
11488;SDS011;5801;50.804;12.638;2024-03-02T10:36:41;12.30;;;5.57;;
11488;SDS011;5801;50.804;12.638;2024-03-02T10:39:08;9.30;;;5.10;;
11488;SDS011;5801;50.804;12.638;2024-03-02T10:41:36;9.07;;;5.18;;
11488;SDS011;5801;50.804;12.638;2024-03-02T10:44:03;6.57;;;5.05;;
11488;SDS011;5801;50.804;12.638;2024-03-02T10:46:35;10.30;;;5.40;;
11488;SDS011;5801;50.804;12.638;2024-03-02T10:49:02;9.25;;;4.95;;
11488;SDS011;5801;50.804;12.638;2024-03-02T10:51:31;9.18;;;5.57;;
11488;SDS011;5801;50.804;12.638;2024-03-02T10:53:58;7.88;;;4.65;;
11488;SDS011;5801;50.804;12.638;2024-03-02T10:56:29;6.85;;;4.63;;
11488;SDS011;5801;50.804;12.638;2024-03-02T10:59:05;7.60;;;5.22;;
11488;SDS011;5801;50.804;12.638;2024-03-02T11:01:40;10.75;;;5.25;;
11488;SDS011;5801;50.804;12.638;2024-03-02T11:04:09;7.82;;;4.88;;
11488;SDS011;5801;50.804;12.638;2024-03-02T11:06:37;8.40;;;4.78;;
11488;SDS011;5801;50.804;12.638;2024-03-02T11:09:06;5.90;;;4.22;;
11488;SDS011;5801;50.804;12.638;2024-03-02T11:11:40;4.38;;;3.00;;
11488;SDS011;5801;50.804;12.638;2024-03-02T11:14:10;5.72;;;3.42;;
11488;SDS011;5801;50.804;12.638;2024-03-02T11:16:41;6.53;;;4.07;;
11488;SDS011;5801;50.804;12.638;2024-03-02T11:19:09;6.22;;;4.13;;
11488;SDS011;5801;50.804;12.638;2024-03-02T11:21:37;7.38;;;3.95;;
11488;SDS011;5801;50.804;12.638;2024-03-02T11:26:52;11.52;;;3.13;;
11488;SDS011;5801;50.804;12.638;2024-03-02T11:32:21;4.72;;;3.00;;
11488;SDS011;5801;50.804;12.638;2024-03-02T11:34:49;6.03;;;3.50;;
11488;SDS011;5801;50.804;12.638;2024-03-02T11:37:16;5.07;;;3.20;;
11488;SDS011;5801;50.804;12.638;2024-03-02T11:39:45;4.63;;;3.65;;
11488;SDS011;5801;50.804;12.638;2024-03-02T11:42:12;5.88;;;3.67;;
11488;SDS011;5801;50.804;12.638;2024-03-02T11:44:39;5.50;;;3.38;;
11488;SDS011;5801;50.804;12.638;2024-03-02T11:47:12;4.18;;;3.17;;
11488;SDS011;5801;50.804;12.638;2024-03-02T11:49:41;7.82;;;3.70;;
11488;SDS011;5801;50.804;12.638;2024-03-02T11:52:15;5.20;;;3.75;;
11488;SDS011;5801;50.804;12.638;2024-03-02T11:54:43;6.63;;;3.55;;
11488;SDS011;5801;50.804;12.638;2024-03-02T11:57:20;4.55;;;3.85;;
11488;SDS011;5801;50.804;12.638;2024-03-02T11:59:49;8.32;;;3.90;;
11488;SDS011;5801;50.804;12.638;2024-03-02T12:02:16;7.57;;;4.30;;
11488;SDS011;5801;50.804;12.638;2024-03-02T12:04:44;6.90;;;4.35;;
11488;SDS011;5801;50.804;12.638;2024-03-02T12:07:11;5.78;;;3.22;;
11488;SDS011;5801;50.804;12.638;2024-03-02T12:09:38;4.55;;;3.65;;
11488;SDS011;5801;50.804;12.638;2024-03-02T12:12:08;5.57;;;2.97;;
11488;SDS011;5801;50.804;12.638;2024-03-02T12:14:35;4.47;;;2.92;;
11488;SDS011;5801;50.804;12.638;2024-03-02T12:17:02;6.40;;;3.10;;
11488;SDS011;5801;50.804;12.638;2024-03-02T12:19:30;4.15;;;3.08;;
11488;SDS011;5801;50.804;12.638;2024-03-02T12:21:57;6.47;;;3.58;;
11488;SDS011;5801;50.804;12.638;2024-03-02T12:24:23;6.00;;;3.38;;
11488;SDS011;5801;50.804;12.638;2024-03-02T12:26:51;5.47;;;3.70;;
11488;SDS011;5801;50.804;12.638;2024-03-02T12:29:18;7.90;;;3.17;;
11488;SDS011;5801;50.804;12.638;2024-03-02T12:31:45;5.65;;;2.60;;
11488;SDS011;5801;50.804;12.638;2024-03-02T12:34:14;6.82;;;2.92;;
11488;SDS011;5801;50.804;12.638;2024-03-02T12:36:42;2.45;;;1.92;;
11488;SDS011;5801;50.804;12.638;2024-03-02T12:39:08;2.60;;;1.73;;
11488;SDS011;5801;50.804;12.638;2024-03-02T12:41:37;3.40;;;2.05;;
11488;SDS011;5801;50.804;12.638;2024-03-02T12:44:04;3.15;;;1.75;;
11488;SDS011;5801;50.804;12.638;2024-03-02T12:46:31;3.08;;;2.25;;
11488;SDS011;5801;50.804;12.638;2024-03-02T12:48:58;3.45;;;2.38;;
11488;SDS011;5801;50.804;12.638;2024-03-02T12:51:32;4.45;;;2.47;;
11488;SDS011;5801;50.804;12.638;2024-03-02T12:53:58;3.40;;;2.17;;
11488;SDS011;5801;50.804;12.638;2024-03-02T12:56:24;4.90;;;3.45;;
11488;SDS011;5801;50.804;12.638;2024-03-02T12:58:54;4.07;;;2.83;;
11488;SDS011;5801;50.804;12.638;2024-03-02T13:01:20;5.80;;;3.22;;
11488;SDS011;5801;50.804;12.638;2024-03-02T13:03:49;3.92;;;2.50;;
11488;SDS011;5801;50.804;12.638;2024-03-02T13:06:16;4.68;;;2.67;;
11488;SDS011;5801;50.804;12.638;2024-03-02T13:08:42;4.38;;;2.72;;
11488;SDS011;5801;50.804;12.638;2024-03-02T13:11:09;4.45;;;2.50;;
11488;SDS011;5801;50.804;12.638;2024-03-02T13:13:35;5.97;;;2.38;;
11488;SDS011;5801;50.804;12.638;2024-03-02T13:16:02;3.03;;;2.40;;
11488;SDS011;5801;50.804;12.638;2024-03-02T13:18:33;4.07;;;2.25;;
11488;SDS011;5801;50.804;12.638;2024-03-02T13:20:59;4.53;;;2.55;;
11488;SDS011;5801;50.804;12.638;2024-03-02T13:23:25;5.43;;;2.55;;
11488;SDS011;5801;50.804;12.638;2024-03-02T13:25:51;5.80;;;2.50;;
11488;SDS011;5801;50.804;12.638;2024-03-02T13:28:17;4.40;;;2.80;;
11488;SDS011;5801;50.804;12.638;2024-03-02T13:30:43;3.85;;;2.50;;
11488;SDS011;5801;50.804;12.638;2024-03-02T13:33:09;5.00;;;2.83;;
11488;SDS011;5801;50.804;12.638;2024-03-02T13:35:35;4.53;;;2.70;;
11488;SDS011;5801;50.804;12.638;2024-03-02T13:38:01;4.95;;;2.35;;
11488;SDS011;5801;50.804;12.638;2024-03-02T13:40:27;6.57;;;2.85;;
11488;SDS011;5801;50.804;12.638;2024-03-02T13:42:54;6.97;;;2.75;;
11488;SDS011;5801;50.804;12.638;2024-03-02T13:45:20;4.00;;;2.38;;
11488;SDS011;5801;50.804;12.638;2024-03-02T13:47:46;4.20;;;2.50;;
11488;SDS011;5801;50.804;12.638;2024-03-02T13:50:12;5.63;;;2.53;;
11488;SDS011;5801;50.804;12.638;2024-03-02T13:52:38;5.28;;;2.78;;
11488;SDS011;5801;50.804;12.638;2024-03-02T13:55:04;5.35;;;2.75;;
11488;SDS011;5801;50.804;12.638;2024-03-02T13:57:31;5.65;;;2.65;;
11488;SDS011;5801;50.804;12.638;2024-03-02T13:59:57;5.50;;;2.88;;
11488;SDS011;5801;50.804;12.638;2024-03-02T14:02:22;7.15;;;2.90;;
11488;SDS011;5801;50.804;12.638;2024-03-02T14:04:48;3.97;;;2.15;;
11488;SDS011;5801;50.804;12.638;2024-03-02T14:07:15;5.65;;;2.58;;
11488;SDS011;5801;50.804;12.638;2024-03-02T14:09:41;5.32;;;2.75;;
11488;SDS011;5801;50.804;12.638;2024-03-02T14:12:07;5.25;;;2.53;;
11488;SDS011;5801;50.804;12.638;2024-03-02T14:14:35;5.10;;;3.10;;
11488;SDS011;5801;50.804;12.638;2024-03-02T14:17:01;6.63;;;2.50;;
11488;SDS011;5801;50.804;12.638;2024-03-02T14:19:31;7.05;;;2.88;;
11488;SDS011;5801;50.804;12.638;2024-03-02T14:21:57;5.03;;;2.92;;
11488;SDS011;5801;50.804;12.638;2024-03-02T14:24:23;3.28;;;2.35;;
11488;SDS011;5801;50.804;12.638;2024-03-02T14:26:51;5.60;;;3.25;;
11488;SDS011;5801;50.804;12.638;2024-03-02T14:29:17;5.57;;;2.90;;
11488;SDS011;5801;50.804;12.638;2024-03-02T14:31:44;5.03;;;2.95;;
11488;SDS011;5801;50.804;12.638;2024-03-02T14:34:13;3.83;;;2.78;;
11488;SDS011;5801;50.804;12.638;2024-03-02T14:36:39;5.80;;;3.55;;
11488;SDS011;5801;50.804;12.638;2024-03-02T14:39:06;7.97;;;2.90;;